Time;durP1;ratioP1;P1;durP2;ratioP2;P2;SDS_P1;SDS_P2;PMS_P1;PMS_P2;Temp;Humidity;BMP_temperature;BMP_pressure;BME280_temperature;BME280_humidity;BME280_pressure;Samples;Min_cycle;Max_cycle;Signal;HPM_P1;HPM_P2
2021/12/11 00:00:35;;;;;;;12.90;6.53;;;;;;;4.20;86.93;100754.84;5033037;28;20049;-67
2021/12/11 00:03:12;;;;;;;10.38;6.72;;;;;;;4.21;87.02;100756.56;5033575;28;20121;-67
2021/12/11 00:05:45;;;;;;;16.15;6.45;;;;;;;4.30;87.00;100759.31;5033126;28;20044;-67
2021/12/11 00:08:19;;;;;;;10.00;6.65;;;;;;;4.38;86.86;100756.88;5033395;28;20049;-67
2021/12/11 00:10:55;;;;;;;12.82;7.22;;;;;;;4.38;86.66;100758.59;5033206;28;20271;-68
2021/12/11 00:13:29;;;;;;;13.55;7.63;;;;;;;4.43;86.77;100764.72;5033553;28;20850;-68
2021/12/11 00:16:01;;;;;;;14.60;8.30;;;;;;;4.47;86.80;100756.16;5033248;28;20080;-68
2021/12/11 00:18:33;;;;;;;16.05;9.50;;;;;;;4.55;86.45;100770.09;5033112;28;20057;-66
2021/12/11 00:21:07;;;;;;;20.40;9.57;;;;;;;4.58;86.34;100767.53;5032823;28;20064;-65
2021/12/11 00:23:40;;;;;;;17.25;9.77;;;;;;;4.50;86.15;100740.69;5031885;28;20116;-66
2021/12/11 00:26:14;;;;;;;21.35;9.60;;;;;;;4.63;86.43;100752.97;5033060;28;20053;-67
2021/12/11 00:28:47;;;;;;;17.70;9.88;;;;;;;4.67;85.81;100759.94;5032605;28;20064;-68
2021/12/11 00:31:19;;;;;;;18.73;9.90;;;;;;;4.69;85.77;100758.25;5032876;28;20048;-68
2021/12/11 00:33:52;;;;;;;18.58;9.38;;;;;;;4.72;85.82;100768.63;5032926;28;20050;-67
2021/12/11 00:36:27;;;;;;;19.50;10.27;;;;;;;4.50;85.75;100735.50;5032921;28;20076;-67
2021/12/11 00:39:05;;;;;;;20.30;9.73;;;;;;;4.70;85.92;100764.28;5033207;28;20057;-67
2021/12/11 00:41:38;;;;;;;20.15;9.63;;;;;;;4.71;85.54;100755.66;5033165;28;20446;-67
2021/12/11 00:44:10;;;;;;;19.88;10.30;;;;;;;4.72;85.59;100750.53;5036094;28;20299;-67
2021/12/11 00:46:41;;;;;;;26.70;11.15;;;;;;;4.70;85.77;100749.63;5036199;28;20052;-67
2021/12/11 00:49:14;;;;;;;18.65;10.48;;;;;;;4.70;85.59;100739.25;5035582;28;20280;-68
2021/12/11 00:51:51;;;;;;;23.05;11.27;;;;;;;4.76;85.51;100731.56;5035674;28;20057;-67
2021/12/11 00:54:22;;;;;;;22.63;10.55;;;;;;;4.82;85.55;100737.69;5035968;28;20045;-67
2021/12/11 00:56:55;;;;;;;22.55;12.63;;;;;;;4.89;85.35;100734.34;5036205;28;20112;-67
2021/12/11 00:59:42;;;;;;;22.45;10.88;;;;;;;4.88;85.39;100723.13;5035962;28;20061;-68
2021/12/11 01:02:31;;;;;;;19.60;10.32;;;;;;;4.95;84.89;100724.09;5036116;28;20059;-68
2021/12/11 01:05:02;;;;;;;23.48;11.15;;;;;;;4.98;84.87;100724.13;5036071;28;20467;-68
2021/12/11 01:07:50;;;;;;;22.73;10.82;;;;;;;5.06;84.56;100722.50;5035483;28;20107;-67
2021/12/11 01:10:38;;;;;;;19.17;10.57;;;;;;;5.13;84.42;100728.66;5035831;28;20080;-68
2021/12/11 01:13:31;;;;;;;26.13;10.32;;;;;;;5.08;84.24;100717.34;5035826;28;20124;-68
2021/12/11 01:16:06;;;;;;;20.20;10.68;;;;;;;4.97;84.31;100706.84;5035827;28;20068;-68
2021/12/11 01:18:39;;;;;;;18.30;10.40;;;;;;;4.92;84.32;100704.19;5035787;28;20547;-67
2021/12/11 01:21:29;;;;;;;24.33;11.90;;;;;;;4.83;84.21;100708.38;5035746;28;20049;-67
2021/12/11 01:24:29;;;;;;;22.15;10.52;;;;;;;4.81;84.38;100699.72;5035947;28;20061;-67
2021/12/11 01:27:20;;;;;;;20.48;12.25;;;;;;;4.84;84.26;100699.75;5035750;28;20091;-67
2021/12/11 01:29:56;;;;;;;27.40;12.40;;;;;;;4.87;84.20;100692.06;5035724;28;20061;-68
2021/12/11 01:32:43;;;;;;;28.95;15.52;;;;;;;4.91;84.31;100686.03;5035083;28;20375;-67
2021/12/11 01:35:31;;;;;;;24.00;12.90;;;;;;;4.93;84.09;100679.16;5036048;28;20049;-68
2021/12/11 01:38:10;;;;;;;23.40;12.00;;;;;;;4.97;84.15;100680.97;5035088;28;20336;-67
2021/12/11 01:40:41;;;;;;;22.88;12.55;;;;;;;4.89;84.11;100667.91;5034670;28;20048;-68
2021/12/11 01:43:13;;;;;;;22.90;12.80;;;;;;;5.02;84.17;100662.88;5035384;28;20049;-67
2021/12/11 01:45:48;;;;;;;26.85;12.57;;;;;;;5.22;83.68;100665.69;5035358;28;20353;-68
2021/12/11 01:48:39;;;;;;;20.92;12.07;;;;;;;5.28;83.36;100670.97;5034282;28;20107;-68
2021/12/11 01:51:30;;;;;;;29.25;11.90;;;;;;;5.27;83.14;100653.69;5035565;28;20056;-68
2021/12/11 01:54:06;;;;;;;23.58;10.77;;;;;;;5.27;82.84;100651.09;5034810;28;20261;-68
2021/12/11 01:56:59;;;;;;;18.83;10.55;;;;;;;5.37;82.85;100656.41;5035392;28;20091;-68
2021/12/11 01:59:53;;;;;;;17.73;10.43;;;;;;;5.34;82.66;100655.47;5035251;28;20075;-67
2021/12/11 02:02:48;;;;;;;22.13;10.98;;;;;;;5.40;82.49;100640.00;5035297;28;20057;-67
2021/12/11 02:05:24;;;;;;;19.75;10.35;;;;;;;5.33;82.51;100628.69;5034968;28;20069;-67
2021/12/11 02:08:18;;;;;;;21.77;10.25;;;;;;;5.43;82.43;100623.63;5034307;28;20394;-68
2021/12/11 02:10:55;;;;;;;18.92;9.45;;;;;;;5.59;82.00;100616.03;5034868;28;20087;-68
2021/12/11 02:13:38;;;;;;;19.95;9.75;;;;;;;5.78;81.84;100622.22;5034582;28;20060;-68
2021/12/11 02:16:16;;;;;;;18.15;8.10;;;;;;;5.85;81.47;100586.84;5034711;28;20045;-68
2021/12/11 02:18:50;;;;;;;15.70;7.38;;;;;;;6.11;80.86;100612.16;5033604;28;20084;-68
2021/12/11 02:21:23;;;;;;;17.60;7.82;;;;;;;6.10;80.62;100602.66;5033104;28;20053;-68
2021/12/11 02:24:19;;;;;;;12.02;6.68;;;;;;;6.10;80.43;100602.66;5034683;28;20060;-68
2021/12/11 02:26:50;;;;;;;15.02;6.50;;;;;;;5.91;80.15;100599.84;5034720;28;20073;-68
2021/12/11 02:29:41;;;;;;;19.75;9.02;;;;;;;5.60;80.18;100570.22;5034774;28;20120;-68
2021/12/11 02:32:34;;;;;;;24.38;10.77;;;;;;;5.58;80.46;100596.13;5034070;28;20386;-68
2021/12/11 02:35:25;;;;;;;21.00;8.40;;;;;;;5.44;80.45;100605.47;5034800;28;20421;-68
2021/12/11 02:38:03;;;;;;;19.05;9.55;;;;;;;5.30;80.86;100604.50;5034020;28;20049;-68
2021/12/11 02:40:59;;;;;;;17.95;10.30;;;;;;;5.13;81.21;100602.56;5034190;28;20160;-67
2021/12/11 02:43:34;;;;;;;21.45;10.75;;;;;;;5.01;81.73;100597.25;5033444;28;20427;-68
2021/12/11 02:46:25;;;;;;;21.85;11.43;;;;;;;5.05;81.65;100596.44;5032982;28;20051;-67
2021/12/11 02:49:16;;;;;;;25.77;12.77;;;;;;;5.15;81.91;100598.28;5033230;28;20056;-68
2021/12/11 02:51:52;;;;;;;28.60;12.00;;;;;;;5.18;82.06;100582.78;5032399;28;20137;-67
2021/12/11 02:54:28;;;;;;;22.05;11.13;;;;;;;5.38;82.20;100589.88;5034150;28;20373;-67
2021/12/11 02:57:21;;;;;;;23.50;12.82;;;;;;;5.57;81.75;100589.22;5034263;28;20406;-67
2021/12/11 03:00:14;;;;;;;24.48;12.35;;;;;;;5.65;81.74;100583.22;5034070;28;20064;-67
2021/12/11 03:03:06;;;;;;;26.13;11.75;;;;;;;5.62;81.23;100569.38;5034166;28;20107;-67
2021/12/11 03:05:45;;;;;;;24.63;11.35;;;;;;;5.79;80.90;100581.59;5033512;28;20229;-67
2021/12/11 03:08:19;;;;;;;21.33;11.77;;;;;;;5.78;80.52;100567.78;5033691;28;20407;-67
2021/12/11 03:11:09;;;;;;;21.70;11.65;;;;;;;5.76;80.47;100568.63;5034025;28;20059;-68
2021/12/11 03:13:59;;;;;;;21.27;11.20;;;;;;;5.73;80.26;100563.41;5033863;28;20103;-67
2021/12/11 03:16:48;;;;;;;32.33;16.33;;;;;;;5.70;80.67;100555.63;5033743;28;20406;-67
2021/12/11 03:19:40;;;;;;;23.65;13.23;;;;;;;5.82;80.74;100560.91;5033768;28;20118;-67
2021/12/11 03:22:14;;;;;;;24.98;11.52;;;;;;;5.90;80.57;100546.25;5033683;28;20116;-66
2021/12/11 03:24:46;;;;;;;20.23;12.05;;;;;;;6.01;80.42;100546.38;5033851;28;20048;-67
2021/12/11 03:27:17;;;;;;;24.00;12.60;;;;;;;6.08;80.24;100539.50;5033695;28;20087;-67
2021/12/11 03:30:09;;;;;;;28.13;14.45;;;;;;;6.15;79.91;100530.91;5033792;28;20051;-68
2021/12/11 03:32:40;;;;;;;43.33;18.17;;;;;;;6.26;79.86;100531.81;5032870;28;20049;-67
2021/12/11 03:35:28;;;;;;;38.42;17.15;;;;;;;6.20;79.49;100516.22;5033820;28;20111;-67
2021/12/11 03:38:15;;;;;;;28.33;13.70;;;;;;;6.28;79.48;100522.31;5033241;28;20123;-68
2021/12/11 03:41:04;;;;;;;31.75;12.70;;;;;;;6.28;79.56;100514.53;5033852;28;20314;-68
2021/12/11 03:43:52;;;;;;;28.42;12.07;;;;;;;6.36;79.66;100518.03;5033439;28;20144;-67
2021/12/11 03:46:42;;;;;;;25.05;12.18;;;;;;;6.42;79.23;100507.69;5033508;28;20115;-67
2021/12/11 03:49:29;;;;;;;32.53;13.87;;;;;;;6.51;79.18;100517.22;5033678;28;20056;-66
2021/12/11 03:52:00;;;;;;;31.48;14.02;;;;;;;6.61;78.90;100512.94;5033867;28;20104;-67
2021/12/11 03:54:36;;;;;;;25.65;13.20;;;;;;;6.68;78.69;100509.50;5033559;28;20049;-67
2021/12/11 03:57:25;;;;;;;25.60;12.15;;;;;;;6.82;78.43;100507.81;5033507;28;20366;-67
2021/12/11 04:00:18;;;;;;;23.55;12.05;;;;;;;7.01;77.99;100508.72;5033477;28;20068;-67
2021/12/11 04:02:52;;;;;;;22.98;12.02;;;;;;;7.08;77.56;100517.41;5032974;28;20050;-67
2021/12/11 04:05:42;;;;;;;26.23;13.93;;;;;;;7.21;77.22;100526.94;5033349;28;20129;-67
2021/12/11 04:08:16;;;;;;;26.23;12.80;;;;;;;7.17;76.98;100512.22;5033161;28;20057;-67
2021/12/11 04:11:04;;;;;;;26.23;11.90;;;;;;;7.17;76.46;100509.63;5033482;28;20056;-67
2021/12/11 04:13:55;;;;;;;22.58;10.18;;;;;;;7.18;76.43;100511.34;5033294;28;20231;-66
2021/12/11 04:16:43;;;;;;;21.02;10.75;;;;;;;7.26;76.77;100525.25;5036146;28;20063;-67
2021/12/11 04:19:33;;;;;;;27.17;11.80;;;;;;;7.30;76.57;100520.91;5036676;28;20111;-67
2021/12/11 04:22:20;;;;;;;24.17;10.40;;;;;;;7.21;75.94;100510.50;5036697;28;20065;-66
2021/12/11 04:24:51;;;;;;;21.20;10.38;;;;;;;7.12;76.12;100512.22;5036907;28;20045;-66
2021/12/11 04:27:24;;;;;;;19.63;10.48;;;;;;;7.06;76.00;100516.53;5036783;28;20366;-67
2021/12/11 04:29:56;;;;;;;26.10;11.23;;;;;;;6.98;76.49;100518.25;5036587;28;20073;-67
2021/12/11 04:32:33;;;;;;;21.30;11.02;;;;;;;7.01;76.82;100519.13;5036562;28;20050;-67
2021/12/11 04:35:26;;;;;;;26.42;11.27;;;;;;;6.96;76.75;100514.78;5035675;28;20267;-68
2021/12/11 04:38:15;;;;;;;32.42;14.68;;;;;;;6.94;77.08;100506.13;5035345;28;20103;-67
2021/12/11 04:41:04;;;;;;;40.95;17.30;;;;;;;6.90;76.92;100497.47;5036767;28;20091;-67
2021/12/11 04:43:36;;;;;;;21.90;11.77;;;;;;;6.88;77.52;100502.63;5036477;28;20426;-68
2021/12/11 04:46:23;;;;;;;24.90;11.55;;;;;;;6.78;77.03;100490.50;5035688;28;20075;-67
2021/12/11 04:49:16;;;;;;;23.02;11.15;;;;;;;6.78;77.10;100500.88;5034346;28;20264;-67
2021/12/11 04:52:14;;;;;;;22.45;10.70;;;;;;;6.80;77.40;100496.56;5035315;28;20056;-67
2021/12/11 04:55:15;;;;;;;22.98;10.68;;;;;;;6.86;77.75;100499.19;5035919;28;20295;-67
2021/12/11 04:58:40;;;;;;;24.27;11.35;;;;;;;6.91;77.70;100497.47;5035985;28;20103;-67
2021/12/11 05:01:29;;;;;;;27.70;12.65;;;;;;;6.94;77.37;100482.72;5035978;28;20068;-68
2021/12/11 05:04:17;;;;;;;27.92;14.15;;;;;;;6.83;77.29;100482.72;5035355;28;20516;-67
2021/12/11 05:06:58;;;;;;;30.48;14.98;;;;;;;6.81;77.39;100490.50;5036242;28;20049;-66
2021/12/11 05:09:56;;;;;;;28.58;11.85;;;;;;;6.75;77.71;100495.69;5036073;28;20118;-66
2021/12/11 05:12:34;;;;;;;22.67;9.32;;;;;;;6.79;77.89;100489.66;5036013;28;20056;-66
2021/12/11 05:15:09;;;;;;;21.70;9.48;;;;;;;6.74;77.66;100487.88;5035768;28;20273;-67
2021/12/11 05:17:57;;;;;;;24.80;11.18;;;;;;;6.70;77.84;100493.06;5035950;28;20339;-67
2021/12/11 05:20:48;;;;;;;24.77;10.63;;;;;;;6.61;77.84;100493.03;5035872;28;20308;-66
2021/12/11 05:23:19;;;;;;;24.80;10.40;;;;;;;6.53;77.75;100493.88;5035525;28;20324;-66
2021/12/11 05:25:51;;;;;;;21.17;9.52;;;;;;;6.51;78.11;100482.63;5035872;28;20112;-67
2021/12/11 05:28:22;;;;;;;17.35;9.27;;;;;;;6.43;77.92;100493.84;5035191;28;20079;-67
2021/12/11 05:31:11;;;;;;;17.27;8.02;;;;;;;6.36;77.70;100497.25;5036026;28;20060;-67
2021/12/11 05:33:43;;;;;;;25.25;9.25;;;;;;;6.27;77.49;100497.25;5035687;28;20104;-67
2021/12/11 05:36:18;;;;;;;16.88;8.50;;;;;;;6.16;77.44;100499.75;5035481;28;20053;-68
2021/12/11 05:38:49;;;;;;;22.90;9.50;;;;;;;5.91;77.87;100466.72;5035474;28;20342;-67
2021/12/11 05:41:24;;;;;;;19.83;9.18;;;;;;;6.05;78.54;100484.13;5035469;28;20371;-67
2021/12/11 05:43:56;;;;;;;21.40;9.80;;;;;;;6.08;78.77;100490.22;5035175;28;20041;-67
2021/12/11 05:46:27;;;;;;;21.38;10.23;;;;;;;6.04;78.44;100500.56;5034891;28;20243;-68
2021/12/11 05:48:59;;;;;;;22.33;9.95;;;;;;;5.93;78.60;100497.00;5035192;28;20053;-68
2021/12/11 05:51:37;;;;;;;21.15;10.70;;;;;;;6.03;80.75;100470.28;5035236;28;20048;-68
2021/12/11 05:54:09;;;;;;;21.33;9.48;;;;;;;6.32;78.78;100500.72;5033707;28;20121;-67
2021/12/11 05:56:42;;;;;;;18.35;8.82;;;;;;;6.20;78.14;100505.84;5034458;28;20112;-68
2021/12/11 05:59:16;;;;;;;19.13;9.15;;;;;;;6.05;77.96;100502.28;5035065;28;20053;-68
2021/12/11 06:01:49;;;;;;;19.75;9.60;;;;;;;5.94;77.87;100503.97;5034433;28;20398;-67
2021/12/11 06:04:24;;;;;;;21.80;9.75;;;;;;;5.77;77.80;100500.38;5033766;28;20072;-68
2021/12/11 06:06:55;;;;;;;22.33;11.30;;;;;;;5.60;78.13;100501.09;5033030;28;20072;-68
2021/12/11 06:09:27;;;;;;;24.13;10.93;;;;;;;5.46;78.01;100500.13;5034701;28;20059;-68
2021/12/11 06:12:04;;;;;;;48.55;22.17;;;;;;;5.19;77.92;100501.63;5034985;28;20370;-68
2021/12/11 06:14:37;;;;;;;41.35;19.27;;;;;;;4.98;78.13;100501.41;5034430;28;20055;-68
2021/12/11 06:17:10;;;;;;;124.30;83.00;;;;;;;4.83;77.95;100507.28;5035007;28;20080;-68
2021/12/11 06:19:49;;;;;;;49.17;37.08;;;;;;;4.72;77.82;100520.13;5034829;28;20042;-68
2021/12/11 06:22:21;;;;;;;52.72;35.25;;;;;;;4.06;78.23;100453.75;5034604;28;20151;-67
2021/12/11 06:24:52;;;;;;;76.93;40.63;;;;;;;4.36;78.68;100519.66;5034529;28;20380;-67
2021/12/11 06:27:26;;;;;;;100.82;45.90;;;;;;;4.15;79.22;100515.94;5034226;28;20059;-67
2021/12/11 06:29:57;;;;;;;15.30;9.10;;;;;;;3.96;79.60;100512.22;5034300;28;20080;-68
2021/12/11 06:32:28;;;;;;;20.95;9.88;;;;;;;3.88;79.86;100531.94;5034341;28;20080;-68
2021/12/11 06:35:04;;;;;;;35.55;16.33;;;;;;;3.76;80.56;100537.78;5034307;28;20165;-67
2021/12/11 06:37:35;;;;;;;38.00;16.90;;;;;;;3.72;81.15;100525.66;5034666;28;20072;-67
2021/12/11 06:40:07;;;;;;;44.17;20.15;;;;;;;3.76;81.39;100532.59;5034404;28;20061;-67
2021/12/11 06:42:39;;;;;;;41.95;17.45;;;;;;;3.79;81.73;100535.22;5034765;28;20049;-68
2021/12/11 06:45:10;;;;;;;49.65;22.10;;;;;;;3.80;81.61;100529.22;5034194;28;20049;-67
2021/12/11 06:47:41;;;;;;;45.78;22.65;;;;;;;3.94;81.32;100546.66;5033965;28;20180;-67
2021/12/11 06:50:12;;;;;;;39.30;20.73;;;;;;;3.92;80.79;100548.34;5034348;28;20045;-67
2021/12/11 06:52:44;;;;;;;31.13;15.77;;;;;;;3.79;80.84;100537.81;5034118;28;20349;-67
2021/12/11 06:55:16;;;;;;;31.10;16.08;;;;;;;3.75;80.52;100538.63;5034266;28;20041;-68
2021/12/11 06:57:50;;;;;;;26.33;15.15;;;;;;;3.69;80.08;100543.69;5032359;28;20045;-67
2021/12/11 07:00:22;;;;;;;61.80;33.45;;;;;;;3.50;79.63;100549.41;5033674;28;20225;-67
2021/12/11 07:02:53;;;;;;;54.60;28.33;;;;;;;3.29;80.16;100550.75;5034089;28;20059;-68
2021/12/11 07:05:24;;;;;;;72.10;29.13;;;;;;;3.06;80.55;100546.91;5033801;28;20060;-67
2021/12/11 07:07:58;;;;;;;78.88;35.97;;;;;;;2.93;81.15;100554.41;5032962;28;20055;-67
2021/12/11 07:10:29;;;;;;;72.40;34.25;;;;;;;2.80;81.19;100550.72;5033811;28;20057;-67
2021/12/11 07:13:02;;;;;;;66.20;30.45;;;;;;;2.62;81.96;100534.00;5033881;28;20053;-67
2021/12/11 07:15:33;;;;;;;36.28;21.13;;;;;;;2.69;82.01;100556.50;5033724;28;20054;-67
2021/12/11 07:18:04;;;;;;;31.20;17.77;;;;;;;2.63;82.36;100561.56;5033734;28;20079;-67
2021/12/11 07:20:35;;;;;;;24.40;13.38;;;;;;;2.62;82.29;100559.81;5033634;28;20061;-67
2021/12/11 07:23:06;;;;;;;26.90;15.43;;;;;;;2.52;82.64;100558.72;5033959;28;20116;-68
2021/12/11 07:25:39;;;;;;;25.70;12.98;;;;;;;2.44;82.62;100561.16;5033912;28;20049;-67
2021/12/11 07:28:13;;;;;;;23.70;13.05;;;;;;;2.42;82.68;100561.97;5034029;28;20069;-68
2021/12/11 07:30:46;;;;;;;26.85;12.95;;;;;;;2.26;82.92;100542.72;5033665;28;20080;-67
2021/12/11 07:33:17;;;;;;;49.05;22.15;;;;;;;2.34;83.13;100566.97;5033041;28;20112;-67
2021/12/11 07:35:49;;;;;;;98.97;64.43;;;;;;;2.33;82.87;100572.97;5033632;28;20053;-67
2021/12/11 07:38:21;;;;;;;73.75;44.92;;;;;;;2.31;83.15;100561.75;5033062;28;20081;-67
2021/12/11 07:40:54;;;;;;;100.93;61.05;;;;;;;2.14;82.73;100541.59;5032749;28;20430;-67
2021/12/11 07:43:28;;;;;;;71.65;43.72;;;;;;;2.25;82.93;100553.88;5032612;28;20049;-67
2021/12/11 07:46:00;;;;;;;41.95;25.00;;;;;;;2.24;82.58;100557.28;5033379;28;20087;-67
2021/12/11 07:48:30;;;;;;;30.70;15.77;;;;;;;2.21;82.71;100572.69;5032544;28;20052;-67
2021/12/11 07:51:01;;;;;;;31.55;15.20;;;;;;;2.13;82.45;100555.34;5035246;28;20303;-67
2021/12/11 07:53:33;;;;;;;23.75;11.80;;;;;;;2.15;82.31;100550.22;5036367;28;20629;-67
2021/12/11 07:56:04;;;;;;;53.22;24.67;;;;;;;2.20;82.13;100573.50;5035745;28;20093;-67
2021/12/11 07:58:37;;;;;;;63.15;31.48;;;;;;;2.09;82.04;100553.50;5036800;28;20053;-68
2021/12/11 08:01:10;;;;;;;60.83;28.33;;;;;;;2.15;81.98;100563.97;5036060;28;20053;-67
2021/12/11 08:03:41;;;;;;;67.57;29.13;;;;;;;2.16;82.09;100570.88;5037539;28;20069;-67
2021/12/11 08:06:13;;;;;;;64.60;26.30;;;;;;;2.15;81.85;100574.28;5037017;28;20072;-67
2021/12/11 08:08:46;;;;;;;43.53;20.45;;;;;;;2.12;81.94;100574.22;5037202;28;20077;-67
2021/12/11 08:11:19;;;;;;;47.97;21.33;;;;;;;2.19;81.59;100589.81;5037206;28;21213;-67
2021/12/11 08:13:52;;;;;;;45.42;21.70;;;;;;;1.90;81.42;100530.75;5037214;28;20077;-67
2021/12/11 08:16:31;;;;;;;79.00;29.65;;;;;;;2.21;81.67;100577.84;5037200;28;20053;-67
2021/12/11 08:19:04;;;;;;;124.53;44.03;;;;;;;2.10;81.59;100565.59;5037185;28;20060;-67
2021/12/11 08:21:35;;;;;;;115.80;45.28;;;;;;;2.12;81.63;100584.53;5035697;28;20057;-67
2021/12/11 08:24:07;;;;;;;61.47;29.63;;;;;;;2.10;81.34;100573.31;5037161;28;20395;-67
2021/12/11 08:26:40;;;;;;;24.60;13.38;;;;;;;2.08;81.29;100580.13;5036879;28;20121;-67
2021/12/11 08:29:15;;;;;;;20.00;10.30;;;;;;;2.02;81.14;100577.44;5037079;28;20087;-67
2021/12/11 08:31:49;;;;;;;17.40;7.20;;;;;;;1.98;81.13;100580.75;5036785;28;20051;-67
2021/12/11 08:34:20;;;;;;;22.55;9.57;;;;;;;2.03;81.21;100584.31;5035788;28;20117;-67
2021/12/11 08:36:52;;;;;;;36.88;15.45;;;;;;;2.03;81.38;100584.31;5036594;28;20120;-67
2021/12/11 08:39:23;;;;;;;22.58;12.02;;;;;;;2.00;81.55;100579.09;5036464;28;20088;-67
2021/12/11 08:41:55;;;;;;;11.65;7.90;;;;;;;1.88;81.28;100576.22;5036470;28;20112;-67
2021/12/11 08:44:29;;;;;;;18.15;9.23;;;;;;;1.82;81.26;100573.50;5036663;28;20045;-67
2021/12/11 08:47:04;;;;;;;22.75;11.82;;;;;;;1.79;81.74;100583.72;5036622;28;21009;-67
2021/12/11 08:49:37;;;;;;;25.05;12.90;;;;;;;1.85;81.71;100589.06;5036691;28;20354;-67
2021/12/11 08:52:11;;;;;;;30.17;14.07;;;;;;;1.86;81.56;100581.34;5035924;28;20064;-67
2021/12/11 08:54:42;;;;;;;24.63;9.35;;;;;;;1.94;81.90;100576.34;5035403;28;20117;-67
2021/12/11 08:57:16;;;;;;;14.30;6.15;;;;;;;2.06;81.62;100589.53;5035583;28;20109;-67
2021/12/11 08:59:52;;;;;;;31.63;12.65;;;;;;;2.16;81.31;100591.50;5036261;28;20072;-67
2021/12/11 09:02:26;;;;;;;31.10;14.02;;;;;;;2.13;81.07;100586.28;5034822;28;20081;-67
2021/12/11 09:04:59;;;;;;;23.60;11.50;;;;;;;2.34;80.93;100605.63;5035900;28;20115;-67
2021/12/11 09:07:34;;;;;;;29.08;14.32;;;;;;;2.32;80.27;100612.47;5036071;28;20104;-67
2021/12/11 09:10:12;;;;;;;10.52;5.97;;;;;;;2.40;77.77;100595.47;5035941;28;20685;-68
2021/12/11 09:12:49;;;;;;;10.40;5.35;;;;;;;2.48;76.88;100604.25;5035880;28;20042;-67
2021/12/11 09:15:27;;;;;;;6.00;3.35;;;;;;;2.49;74.36;100595.66;5035945;28;20053;-68
2021/12/11 09:18:01;;;;;;;9.65;3.88;;;;;;;2.43;74.04;100600.69;5036367;28;20236;-68
2021/12/11 09:20:37;;;;;;;6.40;3.97;;;;;;;2.53;74.31;100594.91;5035917;28;20299;-68
2021/12/11 09:23:12;;;;;;;9.52;4.82;;;;;;;2.58;74.82;100601.03;5035838;28;20160;-68
2021/12/11 09:25:48;;;;;;;9.60;5.00;;;;;;;2.65;75.26;100601.16;5035637;28;20042;-68
2021/12/11 09:28:22;;;;;;;10.77;4.45;;;;;;;2.59;75.23;100592.44;5035770;28;20259;-67
2021/12/11 09:30:59;;;;;;;12.70;5.50;;;;;;;2.55;74.88;100606.13;5035633;28;20053;-67
2021/12/11 09:33:41;;;;;;;15.30;5.97;;;;;;;2.54;75.66;100614.69;5035775;28;20037;-68
2021/12/11 09:36:17;;;;;;;10.13;4.63;;;;;;;2.44;75.62;100606.72;5034893;28;20056;-68
2021/12/11 09:38:52;;;;;;;12.18;4.95;;;;;;;2.50;76.24;100597.41;5035543;28;20049;-68
2021/12/11 09:41:22;;;;;;;16.05;5.95;;;;;;;2.57;76.93;100599.28;5035384;28;20140;-67
2021/12/11 09:43:59;;;;;;;11.02;5.75;;;;;;;2.65;77.23;100603.75;5034791;28;20268;-67
2021/12/11 09:46:33;;;;;;;10.02;4.80;;;;;;;2.56;77.25;100582.06;5035375;28;20340;-67
2021/12/11 09:49:08;;;;;;;9.73;5.28;;;;;;;2.69;77.71;100597.78;5035183;28;20055;-67
2021/12/11 09:51:44;;;;;;;13.45;5.30;;;;;;;2.67;77.96;100599.47;5033483;28;20085;-67
2021/12/11 09:54:25;;;;;;;11.02;4.63;;;;;;;2.68;78.24;100590.91;5035626;28;20056;-67
2021/12/11 09:56:58;;;;;;;;;;;;;;;2.62;77.89;100595.91;5035653;28;20049;-67
2021/12/11 09:59:34;;;;;;;13.27;5.53;;;;;;;2.44;78.59;100586.94;5034127;28;19971;-67
2021/12/11 10:02:09;;;;;;;11.63;5.32;;;;;;;2.35;79.02;100594.50;5034795;28;20064;-67
2021/12/11 10:04:46;;;;;;;9.50;4.47;;;;;;;2.37;79.85;100585.97;5033846;28;20050;-67
2021/12/11 10:07:32;;;;;;;7.47;4.05;;;;;;;2.31;79.95;100585.81;5033362;28;20081;-67
2021/12/11 10:10:20;;;;;;;9.15;4.13;;;;;;;2.21;79.92;100588.16;5035010;28;20053;-67
2021/12/11 10:12:55;;;;;;;7.13;4.03;;;;;;;2.10;79.94;100580.19;5034790;28;20086;-67
2021/12/11 10:15:33;;;;;;;10.60;4.32;;;;;;;2.04;80.39;100586.06;5034819;28;20048;-67
2021/12/11 10:18:08;;;;;;;14.63;4.50;;;;;;;2.04;80.46;100586.06;5034943;28;20120;-67
2021/12/11 10:20:45;;;;;;;10.38;4.10;;;;;;;2.01;80.22;100575.69;5034939;28;20060;-67
2021/12/11 10:23:19;;;;;;;13.98;4.18;;;;;;;1.96;80.57;100572.13;5034548;28;20092;-67
2021/12/11 10:25:51;;;;;;;10.05;4.25;;;;;;;1.94;80.55;100568.63;5034649;28;20358;-67
2021/12/11 10:28:27;;;;;;;8.98;3.92;;;;;;;1.92;80.37;100554.84;5034556;28;20049;-67
2021/12/11 10:31:03;;;;;;;12.25;4.40;;;;;;;1.93;80.54;100572.91;5032738;28;20081;-67
2021/12/11 10:33:34;;;;;;;11.13;5.30;;;;;;;1.88;80.75;100573.66;5033401;28;20056;-68
2021/12/11 10:36:11;;;;;;;9.18;4.40;;;;;;;1.95;80.70;100578.13;5033484;28;20316;-67
2021/12/11 10:38:43;;;;;;;11.13;4.30;;;;;;;1.99;80.92;100576.47;5033470;28;20045;-68
2021/12/11 10:41:26;;;;;;;20.77;8.27;;;;;;;1.93;81.06;100572.06;5032417;28;20076;-68
2021/12/11 10:44:00;;;;;;;38.92;15.15;;;;;;;1.87;80.88;100571.91;5033558;28;20236;-68
2021/12/11 10:46:39;;;;;;;34.92;13.43;;;;;;;1.66;81.32;100562.81;5033290;28;20081;-68
2021/12/11 10:49:12;;;;;;;191.88;50.78;;;;;;;1.57;81.54;100557.44;5030951;28;20267;-68
2021/12/11 10:51:46;;;;;;;130.27;39.90;;;;;;;1.34;82.14;100540.56;5033171;28;20052;-69
2021/12/11 10:54:19;;;;;;;229.70;57.83;;;;;;;1.36;82.20;100562.06;5032547;28;20055;-68
2021/12/11 10:56:51;;;;;;;133.57;37.47;;;;;;;1.35;82.43;100565.44;5033147;28;20602;-68
2021/12/11 10:59:25;;;;;;;193.65;56.88;;;;;;;1.25;83.08;100539.50;5033669;28;20049;-68
2021/12/11 11:02:03;;;;;;;70.65;25.00;;;;;;;1.31;83.18;100558.50;5032540;28;20053;-68
2021/12/11 11:04:41;;;;;;;38.33;15.85;;;;;;;1.22;83.39;100548.81;5032611;28;20087;-69
2021/12/11 11:07:13;;;;;;;21.83;8.95;;;;;;;1.00;83.21;100511.34;5033430;28;20308;-69
2021/12/11 11:09:44;;;;;;;11.00;5.32;;;;;;;1.15;83.33;100542.66;5033951;28;20049;-69
2021/12/11 11:12:18;;;;;;;16.20;10.50;;;;;;;1.14;83.21;100535.75;5033728;28;20147;-69
2021/12/11 11:14:52;;;;;;;33.58;23.02;;;;;;;1.10;83.34;100536.53;5033838;28;20033;-69
2021/12/11 11:17:28;;;;;;;8.32;5.95;;;;;;;1.17;83.16;100556.41;5033069;28;20052;-68
2021/12/11 11:20:00;;;;;;;10.85;6.18;;;;;;;1.09;83.37;100537.34;5033402;28;20049;-68
2021/12/11 11:22:36;;;;;;;12.10;5.25;;;;;;;1.18;83.09;100553.03;5033247;28;20291;-68
2021/12/11 11:25:10;;;;;;;19.77;12.38;;;;;;;1.23;83.28;100551.44;5032533;28;20050;-68
2021/12/11 11:27:43;;;;;;;10.07;6.47;;;;;;;1.24;83.41;100552.31;5033305;28;20045;-68
2021/12/11 11:30:17;;;;;;;14.40;7.00;;;;;;;1.24;83.10;100548.03;5033096;28;20073;-68
2021/12/11 11:32:50;;;;;;;11.48;6.70;;;;;;;1.20;82.96;100541.06;5033611;28;20154;-68
2021/12/11 11:35:25;;;;;;;33.45;17.35;;;;;;;1.08;83.42;100538.19;5032868;28;20065;-68
2021/12/11 11:37:58;;;;;;;57.53;27.60;;;;;;;0.96;83.44;100537.84;5032859;28;20119;-68
2021/12/11 11:40:32;;;;;;;86.82;40.17;;;;;;;0.81;83.78;100541.75;5033387;28;20083;-68
2021/12/11 11:43:06;;;;;;;50.47;23.67;;;;;;;0.81;84.09;100531.44;5033121;28;20159;-68
2021/12/11 11:45:38;;;;;;;60.42;27.20;;;;;;;0.84;84.02;100525.53;5032762;28;20050;-68
2021/12/11 11:48:11;;;;;;;53.25;28.63;;;;;;;1.01;83.62;100544.00;5033231;28;20314;-68
2021/12/11 11:50:44;;;;;;;35.75;16.35;;;;;;;1.00;83.37;100542.22;5033209;28;20116;-68
2021/12/11 11:53:16;;;;;;;42.10;22.83;;;;;;;0.99;83.65;100555.94;5033036;28;20057;-68
2021/12/11 11:55:50;;;;;;;28.95;14.05;;;;;;;0.96;83.78;100550.72;5033495;28;20355;-68
2021/12/11 11:58:21;;;;;;;42.88;23.85;;;;;;;0.94;83.69;100542.06;5033154;28;20116;-68
2021/12/11 12:00:57;;;;;;;52.65;28.45;;;;;;;0.93;83.27;100545.50;4998060;28;20046;-68
2021/12/11 12:03:31;;;;;;;39.45;22.42;;;;;;;1.01;83.73;100538.84;5032979;28;20045;-69
2021/12/11 12:06:05;;;;;;;38.53;16.40;;;;;;;0.98;83.72;100533.63;5032885;28;20054;-68